<?xml version="1.0" encoding="UTF-8" standalone="no" ?>
<gpx xmlns="http://www.topografix.com/GPX/1/1" xmlns:xsi="http://www.w3.org/2001/XMLSchema-instance" xsi:schemaLocation="http://www.topografix.com/GPX/1/1 http://www.topografix.com/GPX/1/1/gpx.xsd" version="1.1" creator="VisuGPX - https://www.visugpx.com">
  <metadata>
    <name>SJDC 8</name>
  </metadata>
  <trk>
    <name><![CDATA[1 - SJDC_08-24202448]]></name>
    <extensions>
      <line xmlns="http://www.topografix.com/GPX/gpx_style/0/2">
        <color>0000FF</color>
        <width>4</width>
      </line>
    </extensions>
    <trkseg>
      <trkpt lat="44.51561" lon="2.81532">
        <ele>375</ele>
        <time>2026-08-13T19:39:42Z</time>
      </trkpt>
      <trkpt lat="44.51561" lon="2.81535">
        <ele>375</ele>
        <time>2026-08-13T19:39:45Z</time>
      </trkpt>
      <trkpt lat="44.51558" lon="2.81537">
        <ele>375</ele>
        <time>2026-08-13T19:39:49Z</time>
      </trkpt>
      <trkpt lat="44.51551" lon="2.81537">
        <ele>375</ele>
        <time>2026-08-13T19:39:59Z</time>
      </trkpt>
      <trkpt lat="44.51529" lon="2.81522">
        <ele>375</ele>
        <time>2026-08-13T19:40:31Z</time>
      </trkpt>
      <trkpt lat="44.51518" lon="2.81522">
        <ele>375</ele>
        <time>2026-08-13T19:40:46Z</time>
      </trkpt>
      <trkpt lat="44.51514" lon="2.81489">
        <ele>375</ele>
        <time>2026-08-13T19:41:18Z</time>
      </trkpt>
      <trkpt lat="44.51498" lon="2.81487">
        <ele>374</ele>
        <time>2026-08-13T19:41:39Z</time>
      </trkpt>
      <trkpt lat="44.51491" lon="2.81507">
        <ele>374</ele>
        <time>2026-08-13T19:42:00Z</time>
      </trkpt>
      <trkpt lat="44.51486" lon="2.81507">
        <ele>373</ele>
        <time>2026-08-13T19:42:07Z</time>
      </trkpt>
      <trkpt lat="44.51466" lon="2.81493">
        <ele>370</ele>
        <time>2026-08-13T19:42:37Z</time>
      </trkpt>
      <trkpt lat="44.51462" lon="2.815">
        <ele>370</ele>
        <time>2026-08-13T19:42:45Z</time>
      </trkpt>
      <trkpt lat="44.51459" lon="2.81515">
        <ele>369</ele>
        <time>2026-08-13T19:43:00Z</time>
      </trkpt>
      <trkpt lat="44.51452" lon="2.81518">
        <ele>368</ele>
        <time>2026-08-13T19:43:10Z</time>
      </trkpt>
      <trkpt lat="44.51435" lon="2.81558">
        <ele>367</ele>
        <time>2026-08-13T19:43:54Z</time>
      </trkpt>
      <trkpt lat="44.51407" lon="2.81653">
        <ele>363</ele>
        <time>2026-08-13T19:45:32Z</time>
      </trkpt>
      <trkpt lat="44.51389" lon="2.81651">
        <ele>360</ele>
        <time>2026-08-13T19:45:56Z</time>
      </trkpt>
      <trkpt lat="44.51387" lon="2.81649">
        <ele>359</ele>
        <time>2026-08-13T19:46:00Z</time>
      </trkpt>
      <trkpt lat="44.5138" lon="2.81657">
        <ele>358</ele>
        <time>2026-08-13T19:46:12Z</time>
      </trkpt>
      <trkpt lat="44.51371" lon="2.8166">
        <ele>356</ele>
        <time>2026-08-13T19:46:24Z</time>
      </trkpt>
      <trkpt lat="44.51354" lon="2.81661">
        <ele>354</ele>
        <time>2026-08-13T19:46:47Z</time>
      </trkpt>
      <trkpt lat="44.51227" lon="2.81616">
        <ele>350</ele>
        <time>2026-08-13T19:49:41Z</time>
      </trkpt>
      <trkpt lat="44.51223" lon="2.81603">
        <ele>350</ele>
        <time>2026-08-13T19:49:55Z</time>
      </trkpt>
      <trkpt lat="44.51268" lon="2.81618">
        <ele>350</ele>
        <time>2026-08-13T19:50:57Z</time>
      </trkpt>
      <trkpt lat="44.51279" lon="2.81607">
        <ele>350</ele>
        <time>2026-08-13T19:51:15Z</time>
      </trkpt>
      <trkpt lat="44.51291" lon="2.81581">
        <ele>351</ele>
        <time>2026-08-13T19:51:44Z</time>
      </trkpt>
      <trkpt lat="44.51303" lon="2.81533">
        <ele>351</ele>
        <time>2026-08-13T19:52:33Z</time>
      </trkpt>
      <trkpt lat="44.51308" lon="2.81456">
        <ele>349</ele>
        <time>2026-08-13T19:53:46Z</time>
      </trkpt>
      <trkpt lat="44.51306" lon="2.81434">
        <ele>349</ele>
        <time>2026-08-13T19:54:07Z</time>
      </trkpt>
      <trkpt lat="44.51295" lon="2.81379">
        <ele>349</ele>
        <time>2026-08-13T19:55:02Z</time>
      </trkpt>
      <trkpt lat="44.51258" lon="2.81287">
        <ele>347</ele>
        <time>2026-08-13T19:56:42Z</time>
      </trkpt>
      <trkpt lat="44.51249" lon="2.81273">
        <ele>347</ele>
        <time>2026-08-13T19:57:00Z</time>
      </trkpt>
      <trkpt lat="44.5124" lon="2.81266">
        <ele>347</ele>
        <time>2026-08-13T19:57:14Z</time>
      </trkpt>
      <trkpt lat="44.51205" lon="2.81216">
        <ele>347</ele>
        <time>2026-08-13T19:58:20Z</time>
      </trkpt>
      <trkpt lat="44.51156" lon="2.81124">
        <ele>348</ele>
        <time>2026-08-13T20:00:10Z</time>
      </trkpt>
      <trkpt lat="44.5105" lon="2.81005">
        <ele>349</ele>
        <time>2026-08-13T20:03:11Z</time>
      </trkpt>
      <trkpt lat="44.51033" lon="2.80995">
        <ele>349</ele>
        <time>2026-08-13T20:03:36Z</time>
      </trkpt>
      <trkpt lat="44.5102" lon="2.80972">
        <ele>349</ele>
        <time>2026-08-13T20:04:03Z</time>
      </trkpt>
      <trkpt lat="44.5098" lon="2.8093">
        <ele>349</ele>
        <time>2026-08-13T20:05:10Z</time>
      </trkpt>
      <trkpt lat="44.5091" lon="2.80863">
        <ele>349</ele>
        <time>2026-08-13T20:07:03Z</time>
      </trkpt>
      <trkpt lat="44.50856" lon="2.80816">
        <ele>349</ele>
        <time>2026-08-13T20:08:28Z</time>
      </trkpt>
      <trkpt lat="44.50841" lon="2.80799">
        <ele>349</ele>
        <time>2026-08-13T20:08:54Z</time>
      </trkpt>
      <trkpt lat="44.50767" lon="2.80648">
        <ele>354</ele>
        <time>2026-08-13T20:11:48Z</time>
      </trkpt>
      <trkpt lat="44.50726" lon="2.80547">
        <ele>360</ele>
        <time>2026-08-13T20:13:39Z</time>
      </trkpt>
      <trkpt lat="44.50723" lon="2.80508">
        <ele>360</ele>
        <time>2026-08-13T20:14:16Z</time>
      </trkpt>
      <trkpt lat="44.50726" lon="2.8041">
        <ele>356</ele>
        <time>2026-08-13T20:15:49Z</time>
      </trkpt>
      <trkpt lat="44.50724" lon="2.80367">
        <ele>354</ele>
        <time>2026-08-13T20:16:30Z</time>
      </trkpt>
      <trkpt lat="44.50715" lon="2.80342">
        <ele>354</ele>
        <time>2026-08-13T20:16:57Z</time>
      </trkpt>
      <trkpt lat="44.50667" lon="2.80257">
        <ele>355</ele>
        <time>2026-08-13T20:18:40Z</time>
      </trkpt>
      <trkpt lat="44.50676" lon="2.80159">
        <ele>362</ele>
        <time>2026-08-13T20:20:14Z</time>
      </trkpt>
      <trkpt lat="44.50672" lon="2.80126">
        <ele>367</ele>
        <time>2026-08-13T20:20:46Z</time>
      </trkpt>
      <trkpt lat="44.50662" lon="2.80089">
        <ele>375</ele>
        <time>2026-08-13T20:21:24Z</time>
      </trkpt>
      <trkpt lat="44.50661" lon="2.80055">
        <ele>376</ele>
        <time>2026-08-13T20:21:56Z</time>
      </trkpt>
      <trkpt lat="44.50658" lon="2.80039">
        <ele>377</ele>
        <time>2026-08-13T20:22:12Z</time>
      </trkpt>
      <trkpt lat="44.50647" lon="2.80006">
        <ele>382</ele>
        <time>2026-08-13T20:22:47Z</time>
      </trkpt>
      <trkpt lat="44.50623" lon="2.7996">
        <ele>392</ele>
        <time>2026-08-13T20:23:41Z</time>
      </trkpt>
      <trkpt lat="44.50626" lon="2.79955">
        <ele>391</ele>
        <time>2026-08-13T20:23:47Z</time>
      </trkpt>
      <trkpt lat="44.50625" lon="2.79946">
        <ele>392</ele>
        <time>2026-08-13T20:23:56Z</time>
      </trkpt>
      <trkpt lat="44.50619" lon="2.79935">
        <ele>395</ele>
        <time>2026-08-13T20:24:09Z</time>
      </trkpt>
      <trkpt lat="44.50604" lon="2.79931">
        <ele>401</ele>
        <time>2026-08-13T20:24:29Z</time>
      </trkpt>
      <trkpt lat="44.50595" lon="2.79915">
        <ele>405</ele>
        <time>2026-08-13T20:24:49Z</time>
      </trkpt>
      <trkpt lat="44.5059" lon="2.79913">
        <ele>407</ele>
        <time>2026-08-13T20:24:56Z</time>
      </trkpt>
      <trkpt lat="44.50577" lon="2.79922">
        <ele>410</ele>
        <time>2026-08-13T20:25:15Z</time>
      </trkpt>
      <trkpt lat="44.50566" lon="2.79912">
        <ele>414</ele>
        <time>2026-08-13T20:25:33Z</time>
      </trkpt>
      <trkpt lat="44.50562" lon="2.79901">
        <ele>417</ele>
        <time>2026-08-13T20:25:44Z</time>
      </trkpt>
      <trkpt lat="44.50564" lon="2.79896">
        <ele>417</ele>
        <time>2026-08-13T20:25:50Z</time>
      </trkpt>
      <trkpt lat="44.50575" lon="2.79895">
        <ele>414</ele>
        <time>2026-08-13T20:26:04Z</time>
      </trkpt>
      <trkpt lat="44.50588" lon="2.7989">
        <ele>411</ele>
        <time>2026-08-13T20:26:22Z</time>
      </trkpt>
      <trkpt lat="44.50606" lon="2.79877">
        <ele>407</ele>
        <time>2026-08-13T20:26:49Z</time>
      </trkpt>
      <trkpt lat="44.50621" lon="2.79854">
        <ele>405</ele>
        <time>2026-08-13T20:27:19Z</time>
      </trkpt>
      <trkpt lat="44.50637" lon="2.79772">
        <ele>410</ele>
        <time>2026-08-13T20:28:40Z</time>
      </trkpt>
      <trkpt lat="44.50641" lon="2.79733">
        <ele>411</ele>
        <time>2026-08-13T20:29:17Z</time>
      </trkpt>
      <trkpt lat="44.5064" lon="2.79718">
        <ele>411</ele>
        <time>2026-08-13T20:29:32Z</time>
      </trkpt>
      <trkpt lat="44.50625" lon="2.79686">
        <ele>416</ele>
        <time>2026-08-13T20:30:08Z</time>
      </trkpt>
      <trkpt lat="44.50606" lon="2.79672">
        <ele>421</ele>
        <time>2026-08-13T20:30:37Z</time>
      </trkpt>
      <trkpt lat="44.5059" lon="2.79648">
        <ele>425</ele>
        <time>2026-08-13T20:31:08Z</time>
      </trkpt>
      <trkpt lat="44.50563" lon="2.79625">
        <ele>429</ele>
        <time>2026-08-13T20:31:50Z</time>
      </trkpt>
      <trkpt lat="44.50537" lon="2.79618">
        <ele>433</ele>
        <time>2026-08-13T20:32:26Z</time>
      </trkpt>
      <trkpt lat="44.50521" lon="2.79611">
        <ele>436</ele>
        <time>2026-08-13T20:32:48Z</time>
      </trkpt>
      <trkpt lat="44.50511" lon="2.79594">
        <ele>436</ele>
        <time>2026-08-13T20:33:09Z</time>
      </trkpt>
      <trkpt lat="44.50504" lon="2.7959">
        <ele>437</ele>
        <time>2026-08-13T20:33:19Z</time>
      </trkpt>
      <trkpt lat="44.50497" lon="2.79594">
        <ele>439</ele>
        <time>2026-08-13T20:33:29Z</time>
      </trkpt>
      <trkpt lat="44.50474" lon="2.7957">
        <ele>442</ele>
        <time>2026-08-13T20:34:07Z</time>
      </trkpt>
      <trkpt lat="44.50463" lon="2.79553">
        <ele>444</ele>
        <time>2026-08-13T20:34:29Z</time>
      </trkpt>
      <trkpt lat="44.50445" lon="2.79549">
        <ele>449</ele>
        <time>2026-08-13T20:34:54Z</time>
      </trkpt>
      <trkpt lat="44.50434" lon="2.7954">
        <ele>452</ele>
        <time>2026-08-13T20:35:11Z</time>
      </trkpt>
      <trkpt lat="44.50426" lon="2.79521">
        <ele>453</ele>
        <time>2026-08-13T20:35:32Z</time>
      </trkpt>
      <trkpt lat="44.50443" lon="2.79516">
        <ele>449</ele>
        <time>2026-08-13T20:35:55Z</time>
      </trkpt>
      <trkpt lat="44.50458" lon="2.79503">
        <ele>444</ele>
        <time>2026-08-13T20:36:18Z</time>
      </trkpt>
      <trkpt lat="44.50473" lon="2.7946">
        <ele>444</ele>
        <time>2026-08-13T20:37:04Z</time>
      </trkpt>
      <trkpt lat="44.50475" lon="2.79389">
        <ele>451</ele>
        <time>2026-08-13T20:38:12Z</time>
      </trkpt>
      <trkpt lat="44.50481" lon="2.7934">
        <ele>455</ele>
        <time>2026-08-13T20:38:59Z</time>
      </trkpt>
      <trkpt lat="44.50479" lon="2.79305">
        <ele>461</ele>
        <time>2026-08-13T20:39:32Z</time>
      </trkpt>
      <trkpt lat="44.50469" lon="2.79302">
        <ele>465</ele>
        <time>2026-08-13T20:39:46Z</time>
      </trkpt>
      <trkpt lat="44.50455" lon="2.79324">
        <ele>466</ele>
        <time>2026-08-13T20:40:14Z</time>
      </trkpt>
      <trkpt lat="44.50443" lon="2.79319">
        <ele>471</ele>
        <time>2026-08-13T20:40:31Z</time>
      </trkpt>
      <trkpt lat="44.5044" lon="2.79307">
        <ele>474</ele>
        <time>2026-08-13T20:40:43Z</time>
      </trkpt>
      <trkpt lat="44.50439" lon="2.79264">
        <ele>481</ele>
        <time>2026-08-13T20:41:24Z</time>
      </trkpt>
      <trkpt lat="44.50446" lon="2.7923">
        <ele>483</ele>
        <time>2026-08-13T20:41:57Z</time>
      </trkpt>
      <trkpt lat="44.50442" lon="2.7914">
        <ele>497</ele>
        <time>2026-08-13T20:43:23Z</time>
      </trkpt>
      <trkpt lat="44.50451" lon="2.79118">
        <ele>499</ele>
        <time>2026-08-13T20:43:47Z</time>
      </trkpt>
      <trkpt lat="44.50468" lon="2.79098">
        <ele>500</ele>
        <time>2026-08-13T20:44:17Z</time>
      </trkpt>
      <trkpt lat="44.5047" lon="2.7909">
        <ele>501</ele>
        <time>2026-08-13T20:44:25Z</time>
      </trkpt>
      <trkpt lat="44.50465" lon="2.79084">
        <ele>504</ele>
        <time>2026-08-13T20:44:34Z</time>
      </trkpt>
      <trkpt lat="44.50431" lon="2.79098">
        <ele>509</ele>
        <time>2026-08-13T20:45:21Z</time>
      </trkpt>
      <trkpt lat="44.50405" lon="2.79132">
        <ele>507</ele>
        <time>2026-08-13T20:46:09Z</time>
      </trkpt>
      <trkpt lat="44.50349" lon="2.79225">
        <ele>513</ele>
        <time>2026-08-13T20:48:04Z</time>
      </trkpt>
      <trkpt lat="44.50342" lon="2.79235">
        <ele>515</ele>
        <time>2026-08-13T20:48:18Z</time>
      </trkpt>
      <trkpt lat="44.50339" lon="2.79235">
        <ele>516</ele>
        <time>2026-08-13T20:48:22Z</time>
      </trkpt>
      <trkpt lat="44.50338" lon="2.79184">
        <ele>518</ele>
        <time>2026-08-13T20:49:10Z</time>
      </trkpt>
      <trkpt lat="44.50332" lon="2.79178">
        <ele>519</ele>
        <time>2026-08-13T20:49:20Z</time>
      </trkpt>
      <trkpt lat="44.50356" lon="2.79089">
        <ele>516</ele>
        <time>2026-08-13T20:50:51Z</time>
      </trkpt>
      <trkpt lat="44.5037" lon="2.79023">
        <ele>517</ele>
        <time>2026-08-13T20:51:56Z</time>
      </trkpt>
      <trkpt lat="44.50437" lon="2.7882">
        <ele>509</ele>
        <time>2026-08-13T20:55:29Z</time>
      </trkpt>
      <trkpt lat="44.50434" lon="2.7878">
        <ele>507</ele>
        <time>2026-08-13T20:56:07Z</time>
      </trkpt>
      <trkpt lat="44.50445" lon="2.78729">
        <ele>503</ele>
        <time>2026-08-13T20:56:58Z</time>
      </trkpt>
      <trkpt lat="44.50456" lon="2.78646">
        <ele>496</ele>
        <time>2026-08-13T20:58:18Z</time>
      </trkpt>
      <trkpt lat="44.50489" lon="2.7859">
        <ele>492</ele>
        <time>2026-08-13T20:59:28Z</time>
      </trkpt>
      <trkpt lat="44.50491" lon="2.78565">
        <ele>489</ele>
        <time>2026-08-13T20:59:52Z</time>
      </trkpt>
      <trkpt lat="44.50508" lon="2.78528">
        <ele>484</ele>
        <time>2026-08-13T21:00:33Z</time>
      </trkpt>
      <trkpt lat="44.50525" lon="2.78498">
        <ele>480</ele>
        <time>2026-08-13T21:01:10Z</time>
      </trkpt>
      <trkpt lat="44.50552" lon="2.785">
        <ele>481</ele>
        <time>2026-08-13T21:01:46Z</time>
      </trkpt>
      <trkpt lat="44.50593" lon="2.78483">
        <ele>482</ele>
        <time>2026-08-13T21:02:43Z</time>
      </trkpt>
      <trkpt lat="44.50601" lon="2.78495">
        <ele>483</ele>
        <time>2026-08-13T21:02:59Z</time>
      </trkpt>
      <trkpt lat="44.50624" lon="2.78547">
        <ele>482</ele>
        <time>2026-08-13T21:03:57Z</time>
      </trkpt>
      <trkpt lat="44.5064" lon="2.78594">
        <ele>481</ele>
        <time>2026-08-13T21:04:46Z</time>
      </trkpt>
      <trkpt lat="44.50647" lon="2.78606">
        <ele>482</ele>
        <time>2026-08-13T21:05:01Z</time>
      </trkpt>
      <trkpt lat="44.50677" lon="2.78632">
        <ele>481</ele>
        <time>2026-08-13T21:05:48Z</time>
      </trkpt>
      <trkpt lat="44.50716" lon="2.78652">
        <ele>478</ele>
        <time>2026-08-13T21:06:44Z</time>
      </trkpt>
      <trkpt lat="44.50849" lon="2.78691">
        <ele>460</ele>
        <time>2026-08-13T21:09:45Z</time>
      </trkpt>
      <trkpt lat="44.50892" lon="2.78688">
        <ele>453</ele>
        <time>2026-08-13T21:10:42Z</time>
      </trkpt>
      <trkpt lat="44.50922" lon="2.78679">
        <ele>449</ele>
        <time>2026-08-13T21:11:23Z</time>
      </trkpt>
      <trkpt lat="44.50955" lon="2.78661">
        <ele>449</ele>
        <time>2026-08-13T21:12:11Z</time>
      </trkpt>
      <trkpt lat="44.50978" lon="2.78643">
        <ele>447</ele>
        <time>2026-08-13T21:12:46Z</time>
      </trkpt>
      <trkpt lat="44.51013" lon="2.78604">
        <ele>445</ele>
        <time>2026-08-13T21:13:45Z</time>
      </trkpt>
      <trkpt lat="44.51025" lon="2.78599">
        <ele>445</ele>
        <time>2026-08-13T21:14:02Z</time>
      </trkpt>
      <trkpt lat="44.51041" lon="2.78581">
        <ele>445</ele>
        <time>2026-08-13T21:14:30Z</time>
      </trkpt>
      <trkpt lat="44.51089" lon="2.78548">
        <ele>442</ele>
        <time>2026-08-13T21:15:41Z</time>
      </trkpt>
      <trkpt lat="44.511" lon="2.7853">
        <ele>440</ele>
        <time>2026-08-13T21:16:03Z</time>
      </trkpt>
      <trkpt lat="44.51109" lon="2.78506">
        <ele>439</ele>
        <time>2026-08-13T21:16:29Z</time>
      </trkpt>
      <trkpt lat="44.51138" lon="2.78454">
        <ele>438</ele>
        <time>2026-08-13T21:17:32Z</time>
      </trkpt>
      <trkpt lat="44.51178" lon="2.78457">
        <ele>438</ele>
        <time>2026-08-13T21:18:25Z</time>
      </trkpt>
      <trkpt lat="44.51194" lon="2.78454">
        <ele>436</ele>
        <time>2026-08-13T21:18:47Z</time>
      </trkpt>
      <trkpt lat="44.51201" lon="2.78445">
        <ele>436</ele>
        <time>2026-08-13T21:19:00Z</time>
      </trkpt>
      <trkpt lat="44.51202" lon="2.78421">
        <ele>441</ele>
        <time>2026-08-13T21:19:23Z</time>
      </trkpt>
      <trkpt lat="44.51221" lon="2.78404">
        <ele>443</ele>
        <time>2026-08-13T21:19:53Z</time>
      </trkpt>
      <trkpt lat="44.51229" lon="2.78385">
        <ele>447</ele>
        <time>2026-08-13T21:20:14Z</time>
      </trkpt>
      <trkpt lat="44.51239" lon="2.7837">
        <ele>450</ele>
        <time>2026-08-13T21:20:33Z</time>
      </trkpt>
      <trkpt lat="44.51263" lon="2.78363">
        <ele>452</ele>
        <time>2026-08-13T21:21:06Z</time>
      </trkpt>
      <trkpt lat="44.51284" lon="2.78365">
        <ele>451</ele>
        <time>2026-08-13T21:21:34Z</time>
      </trkpt>
      <trkpt lat="44.51302" lon="2.7836">
        <ele>451</ele>
        <time>2026-08-13T21:21:58Z</time>
      </trkpt>
      <trkpt lat="44.51385" lon="2.78352">
        <ele>453</ele>
        <time>2026-08-13T21:23:50Z</time>
      </trkpt>
      <trkpt lat="44.51416" lon="2.78321">
        <ele>462</ele>
        <time>2026-08-13T21:24:40Z</time>
      </trkpt>
      <trkpt lat="44.51443" lon="2.78273">
        <ele>464</ele>
        <time>2026-08-13T21:25:38Z</time>
      </trkpt>
      <trkpt lat="44.51459" lon="2.78263">
        <ele>464</ele>
        <time>2026-08-13T21:26:02Z</time>
      </trkpt>
      <trkpt lat="44.51479" lon="2.78235">
        <ele>465</ele>
        <time>2026-08-13T21:26:40Z</time>
      </trkpt>
      <trkpt lat="44.5148" lon="2.78213">
        <ele>467</ele>
        <time>2026-08-13T21:27:01Z</time>
      </trkpt>
      <trkpt lat="44.51475" lon="2.78189">
        <ele>469</ele>
        <time>2026-08-13T21:27:24Z</time>
      </trkpt>
      <trkpt lat="44.51464" lon="2.7817">
        <ele>471</ele>
        <time>2026-08-13T21:27:48Z</time>
      </trkpt>
      <trkpt lat="44.5153" lon="2.78131">
        <ele>471</ele>
        <time>2026-08-13T21:29:23Z</time>
      </trkpt>
      <trkpt lat="44.51535" lon="2.78136">
        <ele>470</ele>
        <time>2026-08-13T21:29:31Z</time>
      </trkpt>
      <trkpt lat="44.51542" lon="2.78132">
        <ele>470</ele>
        <time>2026-08-13T21:29:41Z</time>
      </trkpt>
      <trkpt lat="44.51557" lon="2.78108">
        <ele>473</ele>
        <time>2026-08-13T21:30:12Z</time>
      </trkpt>
      <trkpt lat="44.51569" lon="2.7811">
        <ele>472</ele>
        <time>2026-08-13T21:30:28Z</time>
      </trkpt>
      <trkpt lat="44.51584" lon="2.781">
        <ele>473</ele>
        <time>2026-08-13T21:30:50Z</time>
      </trkpt>
      <trkpt lat="44.51591" lon="2.78105">
        <ele>470</ele>
        <time>2026-08-13T21:31:01Z</time>
      </trkpt>
      <trkpt lat="44.51614" lon="2.78089">
        <ele>464</ele>
        <time>2026-08-13T21:31:35Z</time>
      </trkpt>
      <trkpt lat="44.51624" lon="2.78092">
        <ele>460</ele>
        <time>2026-08-13T21:31:49Z</time>
      </trkpt>
      <trkpt lat="44.51632" lon="2.78072">
        <ele>459</ele>
        <time>2026-08-13T21:32:10Z</time>
      </trkpt>
      <trkpt lat="44.51557" lon="2.77993">
        <ele>477</ele>
        <time>2026-08-13T21:34:16Z</time>
      </trkpt>
      <trkpt lat="44.5153" lon="2.77925">
        <ele>478</ele>
        <time>2026-08-13T21:35:30Z</time>
      </trkpt>
      <trkpt lat="44.51518" lon="2.77908">
        <ele>478</ele>
        <time>2026-08-13T21:35:52Z</time>
      </trkpt>
      <trkpt lat="44.51511" lon="2.77887">
        <ele>477</ele>
        <time>2026-08-13T21:36:14Z</time>
      </trkpt>
      <trkpt lat="44.51511" lon="2.77878">
        <ele>476</ele>
        <time>2026-08-13T21:36:23Z</time>
      </trkpt>
      <trkpt lat="44.5154" lon="2.77798">
        <ele>466</ele>
        <time>2026-08-13T21:37:48Z</time>
      </trkpt>
      <trkpt lat="44.51542" lon="2.77756">
        <ele>459</ele>
        <time>2026-08-13T21:38:28Z</time>
      </trkpt>
      <trkpt lat="44.51528" lon="2.77679">
        <ele>445</ele>
        <time>2026-08-13T21:39:44Z</time>
      </trkpt>
      <trkpt lat="44.51524" lon="2.7764">
        <ele>437</ele>
        <time>2026-08-13T21:40:22Z</time>
      </trkpt>
      <trkpt lat="44.51514" lon="2.77639">
        <ele>439</ele>
        <time>2026-08-13T21:40:35Z</time>
      </trkpt>
      <trkpt lat="44.515" lon="2.77642">
        <ele>444</ele>
        <time>2026-08-13T21:40:54Z</time>
      </trkpt>
      <trkpt lat="44.51483" lon="2.77655">
        <ele>444</ele>
        <time>2026-08-13T21:41:20Z</time>
      </trkpt>
      <trkpt lat="44.51466" lon="2.77711">
        <ele>451</ele>
        <time>2026-08-13T21:42:18Z</time>
      </trkpt>
      <trkpt lat="44.51454" lon="2.77718">
        <ele>450</ele>
        <time>2026-08-13T21:42:35Z</time>
      </trkpt>
      <trkpt lat="44.51444" lon="2.7773">
        <ele>450</ele>
        <time>2026-08-13T21:42:52Z</time>
      </trkpt>
      <trkpt lat="44.51443" lon="2.77701">
        <ele>444</ele>
        <time>2026-08-13T21:43:20Z</time>
      </trkpt>
      <trkpt lat="44.51431" lon="2.77706">
        <ele>443</ele>
        <time>2026-08-13T21:43:37Z</time>
      </trkpt>
      <trkpt lat="44.51426" lon="2.77703">
        <ele>441</ele>
        <time>2026-08-13T21:43:44Z</time>
      </trkpt>
      <trkpt lat="44.51424" lon="2.77674">
        <ele>435</ele>
        <time>2026-08-13T21:44:12Z</time>
      </trkpt>
      <trkpt lat="44.51417" lon="2.77679">
        <ele>435</ele>
        <time>2026-08-13T21:44:22Z</time>
      </trkpt>
      <trkpt lat="44.51407" lon="2.77679">
        <ele>432</ele>
        <time>2026-08-13T21:44:36Z</time>
      </trkpt>
      <trkpt lat="44.51408" lon="2.77668">
        <ele>430</ele>
        <time>2026-08-13T21:44:46Z</time>
      </trkpt>
      <trkpt lat="44.51396" lon="2.77677">
        <ele>428</ele>
        <time>2026-08-13T21:45:04Z</time>
      </trkpt>
      <trkpt lat="44.51391" lon="2.77675">
        <ele>427</ele>
        <time>2026-08-13T21:45:11Z</time>
      </trkpt>
      <trkpt lat="44.51384" lon="2.77676">
        <ele>425</ele>
        <time>2026-08-13T21:45:21Z</time>
      </trkpt>
      <trkpt lat="44.51392" lon="2.77653">
        <ele>422</ele>
        <time>2026-08-13T21:45:45Z</time>
      </trkpt>
      <trkpt lat="44.51381" lon="2.7764">
        <ele>417</ele>
        <time>2026-08-13T21:46:04Z</time>
      </trkpt>
      <trkpt lat="44.51386" lon="2.77624">
        <ele>415</ele>
        <time>2026-08-13T21:46:21Z</time>
      </trkpt>
      <trkpt lat="44.5138" lon="2.77627">
        <ele>414</ele>
        <time>2026-08-13T21:46:29Z</time>
      </trkpt>
      <trkpt lat="44.51392" lon="2.77583">
        <ele>409</ele>
        <time>2026-08-13T21:47:14Z</time>
      </trkpt>
      <trkpt lat="44.51395" lon="2.77542">
        <ele>399</ele>
        <time>2026-08-13T21:47:53Z</time>
      </trkpt>
      <trkpt lat="44.51401" lon="2.7753">
        <ele>398</ele>
        <time>2026-08-13T21:48:07Z</time>
      </trkpt>
      <trkpt lat="44.51401" lon="2.77517">
        <ele>394</ele>
        <time>2026-08-13T21:48:20Z</time>
      </trkpt>
      <trkpt lat="44.51455" lon="2.77427">
        <ele>380</ele>
        <time>2026-08-13T21:50:12Z</time>
      </trkpt>
      <trkpt lat="44.5148" lon="2.77391">
        <ele>376</ele>
        <time>2026-08-13T21:50:59Z</time>
      </trkpt>
      <trkpt lat="44.51502" lon="2.77382">
        <ele>377</ele>
        <time>2026-08-13T21:51:30Z</time>
      </trkpt>
      <trkpt lat="44.51564" lon="2.77315">
        <ele>363</ele>
        <time>2026-08-13T21:53:14Z</time>
      </trkpt>
      <trkpt lat="44.51576" lon="2.77289">
        <ele>358</ele>
        <time>2026-08-13T21:53:44Z</time>
      </trkpt>
      <trkpt lat="44.51587" lon="2.77275">
        <ele>355</ele>
        <time>2026-08-13T21:54:04Z</time>
      </trkpt>
      <trkpt lat="44.51602" lon="2.77273">
        <ele>354</ele>
        <time>2026-08-13T21:54:24Z</time>
      </trkpt>
      <trkpt lat="44.51637" lon="2.77279">
        <ele>354</ele>
        <time>2026-08-13T21:55:11Z</time>
      </trkpt>
      <trkpt lat="44.51679" lon="2.77271">
        <ele>351</ele>
        <time>2026-08-13T21:56:07Z</time>
      </trkpt>
      <trkpt lat="44.51723" lon="2.77268">
        <ele>348</ele>
        <time>2026-08-13T21:57:06Z</time>
      </trkpt>
      <trkpt lat="44.51764" lon="2.77228">
        <ele>345</ele>
        <time>2026-08-13T21:58:13Z</time>
      </trkpt>
      <trkpt lat="44.51783" lon="2.77177">
        <ele>345</ele>
        <time>2026-08-13T21:59:08Z</time>
      </trkpt>
      <trkpt lat="44.51797" lon="2.77205">
        <ele>343</ele>
        <time>2026-08-13T21:59:40Z</time>
      </trkpt>
      <trkpt lat="44.51812" lon="2.77218">
        <ele>342</ele>
        <time>2026-08-13T22:00:04Z</time>
      </trkpt>
      <trkpt lat="44.51826" lon="2.77223">
        <ele>341</ele>
        <time>2026-08-13T22:00:23Z</time>
      </trkpt>
      <trkpt lat="44.51957" lon="2.77219">
        <ele>338</ele>
        <time>2026-08-13T22:03:18Z</time>
      </trkpt>
      <trkpt lat="44.5196" lon="2.77223">
        <ele>338</ele>
        <time>2026-08-13T22:03:23Z</time>
      </trkpt>
      <trkpt lat="44.51953" lon="2.77266">
        <ele>338</ele>
        <time>2026-08-13T22:04:05Z</time>
      </trkpt>
      <trkpt lat="44.51954" lon="2.77275">
        <ele>338</ele>
        <time>2026-08-13T22:04:14Z</time>
      </trkpt>
      <trkpt lat="44.51962" lon="2.77285">
        <ele>338</ele>
        <time>2026-08-13T22:04:28Z</time>
      </trkpt>
      <trkpt lat="44.5198" lon="2.77298">
        <ele>337</ele>
        <time>2026-08-13T22:04:55Z</time>
      </trkpt>
      <trkpt lat="44.52037" lon="2.77314">
        <ele>338</ele>
        <time>2026-08-13T22:06:13Z</time>
      </trkpt>
      <trkpt lat="44.52084" lon="2.77322">
        <ele>340</ele>
        <time>2026-08-13T22:07:16Z</time>
      </trkpt>
      <trkpt lat="44.52109" lon="2.77306">
        <ele>339</ele>
        <time>2026-08-13T22:07:53Z</time>
      </trkpt>
      <trkpt lat="44.52115" lon="2.77312">
        <ele>339</ele>
        <time>2026-08-13T22:08:03Z</time>
      </trkpt>
      <trkpt lat="44.52119" lon="2.77311">
        <ele>339</ele>
        <time>2026-08-13T22:08:08Z</time>
      </trkpt>
      <trkpt lat="44.52123" lon="2.77306">
        <ele>339</ele>
        <time>2026-08-13T22:08:15Z</time>
      </trkpt>
      <trkpt lat="44.52146" lon="2.77319">
        <ele>339</ele>
        <time>2026-08-13T22:08:48Z</time>
      </trkpt>
      <trkpt lat="44.52187" lon="2.77307">
        <ele>339</ele>
        <time>2026-08-13T22:09:44Z</time>
      </trkpt>
      <trkpt lat="44.52192" lon="2.77303">
        <ele>339</ele>
        <time>2026-08-13T22:09:52Z</time>
      </trkpt>
      <trkpt lat="44.52217" lon="2.77265">
        <ele>338</ele>
        <time>2026-08-13T22:10:41Z</time>
      </trkpt>
      <trkpt lat="44.52248" lon="2.77225">
        <ele>339</ele>
        <time>2026-08-13T22:11:37Z</time>
      </trkpt>
      <trkpt lat="44.52267" lon="2.77187">
        <ele>340</ele>
        <time>2026-08-13T22:12:21Z</time>
      </trkpt>
      <trkpt lat="44.52285" lon="2.77121">
        <ele>341</ele>
        <time>2026-08-13T22:13:29Z</time>
      </trkpt>
      <trkpt lat="44.52286" lon="2.77107">
        <ele>341</ele>
        <time>2026-08-13T22:13:42Z</time>
      </trkpt>
      <trkpt lat="44.52273" lon="2.77056">
        <ele>339</ele>
        <time>2026-08-13T22:14:34Z</time>
      </trkpt>
      <trkpt lat="44.52269" lon="2.77031">
        <ele>338</ele>
        <time>2026-08-13T22:14:58Z</time>
      </trkpt>
      <trkpt lat="44.52267" lon="2.76989">
        <ele>337</ele>
        <time>2026-08-13T22:15:38Z</time>
      </trkpt>
      <trkpt lat="44.52233" lon="2.76857">
        <ele>339</ele>
        <time>2026-08-13T22:17:52Z</time>
      </trkpt>
      <trkpt lat="44.52224" lon="2.76831">
        <ele>340</ele>
        <time>2026-08-13T22:18:19Z</time>
      </trkpt>
      <trkpt lat="44.5217" lon="2.76743">
        <ele>344</ele>
        <time>2026-08-13T22:20:10Z</time>
      </trkpt>
      <trkpt lat="44.52119" lon="2.76513">
        <ele>339</ele>
        <time>2026-08-13T22:23:59Z</time>
      </trkpt>
      <trkpt lat="44.52115" lon="2.76446">
        <ele>342</ele>
        <time>2026-08-13T22:25:03Z</time>
      </trkpt>
      <trkpt lat="44.52118" lon="2.76424">
        <ele>343</ele>
        <time>2026-08-13T22:25:24Z</time>
      </trkpt>
      <trkpt lat="44.52124" lon="2.76412">
        <ele>343</ele>
        <time>2026-08-13T22:25:38Z</time>
      </trkpt>
      <trkpt lat="44.52123" lon="2.76407">
        <ele>343</ele>
        <time>2026-08-13T22:25:43Z</time>
      </trkpt>
      <trkpt lat="44.5214" lon="2.76384">
        <ele>344</ele>
        <time>2026-08-13T22:26:14Z</time>
      </trkpt>
      <trkpt lat="44.52145" lon="2.76372">
        <ele>345</ele>
        <time>2026-08-13T22:26:28Z</time>
      </trkpt>
      <trkpt lat="44.52165" lon="2.76375">
        <ele>344</ele>
        <time>2026-08-13T22:26:54Z</time>
      </trkpt>
      <trkpt lat="44.52202" lon="2.76329">
        <ele>344</ele>
        <time>2026-08-13T22:28:00Z</time>
      </trkpt>
      <trkpt lat="44.52212" lon="2.76333">
        <ele>343</ele>
        <time>2026-08-13T22:28:14Z</time>
      </trkpt>
      <trkpt lat="44.5222" lon="2.7634">
        <ele>343</ele>
        <time>2026-08-13T22:28:27Z</time>
      </trkpt>
      <trkpt lat="44.52243" lon="2.76288">
        <ele>341</ele>
        <time>2026-08-13T22:29:25Z</time>
      </trkpt>
      <trkpt lat="44.52277" lon="2.76241">
        <ele>339</ele>
        <time>2026-08-13T22:30:29Z</time>
      </trkpt>
      <trkpt lat="44.52326" lon="2.76161">
        <ele>336</ele>
        <time>2026-08-13T22:32:09Z</time>
      </trkpt>
      <trkpt lat="44.52391" lon="2.76041">
        <ele>335</ele>
        <time>2026-08-13T22:34:33Z</time>
      </trkpt>
      <trkpt lat="44.52431" lon="2.75994">
        <ele>335</ele>
        <time>2026-08-13T22:35:42Z</time>
      </trkpt>
      <trkpt lat="44.52449" lon="2.75967">
        <ele>334</ele>
        <time>2026-08-13T22:36:17Z</time>
      </trkpt>
      <trkpt lat="44.52497" lon="2.75877">
        <ele>334</ele>
        <time>2026-08-13T22:38:04Z</time>
      </trkpt>
      <trkpt lat="44.52499" lon="2.75861">
        <ele>333</ele>
        <time>2026-08-13T22:38:20Z</time>
      </trkpt>
      <trkpt lat="44.5251" lon="2.75855">
        <ele>333</ele>
        <time>2026-08-13T22:38:35Z</time>
      </trkpt>
      <trkpt lat="44.52561" lon="2.75796">
        <ele>334</ele>
        <time>2026-08-13T22:40:04Z</time>
      </trkpt>
      <trkpt lat="44.52572" lon="2.75775">
        <ele>334</ele>
        <time>2026-08-13T22:40:28Z</time>
      </trkpt>
      <trkpt lat="44.52491" lon="2.75704">
        <ele>334</ele>
        <time>2026-08-13T22:42:36Z</time>
      </trkpt>
      <trkpt lat="44.52523" lon="2.75685">
        <ele>334</ele>
        <time>2026-08-13T22:43:22Z</time>
      </trkpt>
      <trkpt lat="44.52535" lon="2.75667">
        <ele>334</ele>
        <time>2026-08-13T22:43:46Z</time>
      </trkpt>
      <trkpt lat="44.52581" lon="2.75543">
        <ele>334</ele>
        <time>2026-08-13T22:45:59Z</time>
      </trkpt>
      <trkpt lat="44.52616" lon="2.75435">
        <ele>333</ele>
        <time>2026-08-13T22:47:52Z</time>
      </trkpt>
      <trkpt lat="44.52666" lon="2.75228">
        <ele>333</ele>
        <time>2026-08-13T22:51:20Z</time>
      </trkpt>
      <trkpt lat="44.52578" lon="2.75178">
        <ele>341</ele>
        <time>2026-08-13T22:53:26Z</time>
      </trkpt>
      <trkpt lat="44.52576" lon="2.7516">
        <ele>343</ele>
        <time>2026-08-13T22:53:44Z</time>
      </trkpt>
      <trkpt lat="44.52598" lon="2.75099">
        <ele>344</ele>
        <time>2026-08-13T22:54:49Z</time>
      </trkpt>
      <trkpt lat="44.52626" lon="2.7505">
        <ele>342</ele>
        <time>2026-08-13T22:55:48Z</time>
      </trkpt>
      <trkpt lat="44.52639" lon="2.75035">
        <ele>342</ele>
        <time>2026-08-13T22:56:11Z</time>
      </trkpt>
      <trkpt lat="44.52642" lon="2.75022">
        <ele>342</ele>
        <time>2026-08-13T22:56:24Z</time>
      </trkpt>
      <trkpt lat="44.52635" lon="2.75">
        <ele>345</ele>
        <time>2026-08-13T22:56:47Z</time>
      </trkpt>
      <trkpt lat="44.5261" lon="2.74976">
        <ele>349</ele>
        <time>2026-08-13T22:57:27Z</time>
      </trkpt>
      <trkpt lat="44.52588" lon="2.74959">
        <ele>352</ele>
        <time>2026-08-13T22:58:01Z</time>
      </trkpt>
      <trkpt lat="44.52619" lon="2.74851">
        <ele>347</ele>
        <time>2026-08-13T22:59:51Z</time>
      </trkpt>
      <trkpt lat="44.5263" lon="2.74846">
        <ele>346</ele>
        <time>2026-08-13T23:00:07Z</time>
      </trkpt>
      <trkpt lat="44.52638" lon="2.74817">
        <ele>345</ele>
        <time>2026-08-13T23:00:36Z</time>
      </trkpt>
      <trkpt lat="44.52639" lon="2.74699">
        <ele>346</ele>
        <time>2026-08-13T23:02:29Z</time>
      </trkpt>
      <trkpt lat="44.52647" lon="2.74667">
        <ele>346</ele>
        <time>2026-08-13T23:03:01Z</time>
      </trkpt>
      <trkpt lat="44.5265" lon="2.7462">
        <ele>346</ele>
        <time>2026-08-13T23:03:46Z</time>
      </trkpt>
      <trkpt lat="44.52648" lon="2.74583">
        <ele>346</ele>
        <time>2026-08-13T23:04:21Z</time>
      </trkpt>
      <trkpt lat="44.52638" lon="2.74567">
        <ele>347</ele>
        <time>2026-08-13T23:04:41Z</time>
      </trkpt>
      <trkpt lat="44.52637" lon="2.74561">
        <ele>348</ele>
        <time>2026-08-13T23:04:47Z</time>
      </trkpt>
      <trkpt lat="44.52638" lon="2.74552">
        <ele>348</ele>
        <time>2026-08-13T23:04:56Z</time>
      </trkpt>
      <trkpt lat="44.52652" lon="2.74537">
        <ele>347</ele>
        <time>2026-08-13T23:05:19Z</time>
      </trkpt>
      <trkpt lat="44.52654" lon="2.74511">
        <ele>348</ele>
        <time>2026-08-13T23:05:44Z</time>
      </trkpt>
      <trkpt lat="44.52632" lon="2.74483">
        <ele>349</ele>
        <time>2026-08-13T23:06:24Z</time>
      </trkpt>
      <trkpt lat="44.52629" lon="2.74474">
        <ele>349</ele>
        <time>2026-08-13T23:06:33Z</time>
      </trkpt>
      <trkpt lat="44.5263" lon="2.74464">
        <ele>349</ele>
        <time>2026-08-13T23:06:43Z</time>
      </trkpt>
      <trkpt lat="44.52632" lon="2.74458">
        <ele>349</ele>
        <time>2026-08-13T23:06:49Z</time>
      </trkpt>
      <trkpt lat="44.52672" lon="2.74451">
        <ele>347</ele>
        <time>2026-08-13T23:07:43Z</time>
      </trkpt>
      <trkpt lat="44.52689" lon="2.74433">
        <ele>344</ele>
        <time>2026-08-13T23:08:12Z</time>
      </trkpt>
      <trkpt lat="44.52708" lon="2.74377">
        <ele>341</ele>
        <time>2026-08-13T23:09:11Z</time>
      </trkpt>
      <trkpt lat="44.52719" lon="2.74331">
        <ele>340</ele>
        <time>2026-08-13T23:09:57Z</time>
      </trkpt>
      <trkpt lat="44.52725" lon="2.74362">
        <ele>338</ele>
        <time>2026-08-13T23:10:27Z</time>
      </trkpt>
      <trkpt lat="44.52752" lon="2.74329">
        <ele>336</ele>
        <time>2026-08-13T23:11:15Z</time>
      </trkpt>
      <trkpt lat="44.52778" lon="2.74289">
        <ele>334</ele>
        <time>2026-08-13T23:12:07Z</time>
      </trkpt>
      <trkpt lat="44.52784" lon="2.74272">
        <ele>333</ele>
        <time>2026-08-13T23:12:25Z</time>
      </trkpt>
      <trkpt lat="44.52823" lon="2.74213">
        <ele>330</ele>
        <time>2026-08-13T23:13:41Z</time>
      </trkpt>
      <trkpt lat="44.52858" lon="2.74154">
        <ele>328</ele>
        <time>2026-08-13T23:14:54Z</time>
      </trkpt>
      <trkpt lat="44.52894" lon="2.74109">
        <ele>328</ele>
        <time>2026-08-13T23:15:59Z</time>
      </trkpt>
      <trkpt lat="44.52921" lon="2.74083">
        <ele>329</ele>
        <time>2026-08-13T23:16:42Z</time>
      </trkpt>
      <trkpt lat="44.52933" lon="2.7406">
        <ele>329</ele>
        <time>2026-08-13T23:17:09Z</time>
      </trkpt>
      <trkpt lat="44.52942" lon="2.74056">
        <ele>329</ele>
        <time>2026-08-13T23:17:22Z</time>
      </trkpt>
      <trkpt lat="44.52954" lon="2.74038">
        <ele>329</ele>
        <time>2026-08-13T23:17:45Z</time>
      </trkpt>
      <trkpt lat="44.52972" lon="2.73997">
        <ele>328</ele>
        <time>2026-08-13T23:18:31Z</time>
      </trkpt>
      <trkpt lat="44.52981" lon="2.73961">
        <ele>328</ele>
        <time>2026-08-13T23:19:07Z</time>
      </trkpt>
      <trkpt lat="44.52981" lon="2.73948">
        <ele>329</ele>
        <time>2026-08-13T23:19:20Z</time>
      </trkpt>
      <trkpt lat="44.52975" lon="2.73932">
        <ele>329</ele>
        <time>2026-08-13T23:19:37Z</time>
      </trkpt>
      <trkpt lat="44.52961" lon="2.73912">
        <ele>329</ele>
        <time>2026-08-13T23:20:04Z</time>
      </trkpt>
      <trkpt lat="44.52956" lon="2.73875">
        <ele>329</ele>
        <time>2026-08-13T23:20:40Z</time>
      </trkpt>
      <trkpt lat="44.52962" lon="2.73855">
        <ele>329</ele>
        <time>2026-08-13T23:21:00Z</time>
      </trkpt>
      <trkpt lat="44.52975" lon="2.73857">
        <ele>329</ele>
        <time>2026-08-13T23:21:18Z</time>
      </trkpt>
      <trkpt lat="44.52979" lon="2.73853">
        <ele>329</ele>
        <time>2026-08-13T23:21:24Z</time>
      </trkpt>
      <trkpt lat="44.52985" lon="2.73833">
        <ele>328</ele>
        <time>2026-08-13T23:21:45Z</time>
      </trkpt>
      <trkpt lat="44.52984" lon="2.7381">
        <ele>328</ele>
        <time>2026-08-13T23:22:07Z</time>
      </trkpt>
      <trkpt lat="44.52974" lon="2.73785">
        <ele>328</ele>
        <time>2026-08-13T23:22:34Z</time>
      </trkpt>
      <trkpt lat="44.52966" lon="2.73783">
        <ele>328</ele>
        <time>2026-08-13T23:22:45Z</time>
      </trkpt>
      <trkpt lat="44.52959" lon="2.73784">
        <ele>328</ele>
        <time>2026-08-13T23:22:54Z</time>
      </trkpt>
      <trkpt lat="44.52944" lon="2.73797">
        <ele>329</ele>
        <time>2026-08-13T23:23:18Z</time>
      </trkpt>
      <trkpt lat="44.52905" lon="2.73796">
        <ele>330</ele>
        <time>2026-08-13T23:24:10Z</time>
      </trkpt>
      <trkpt lat="44.52898" lon="2.73793">
        <ele>330</ele>
        <time>2026-08-13T23:24:20Z</time>
      </trkpt>
      <trkpt lat="44.52858" lon="2.73669">
        <ele>330</ele>
        <time>2026-08-13T23:26:29Z</time>
      </trkpt>
      <trkpt lat="44.52849" lon="2.73657">
        <ele>331</ele>
        <time>2026-08-13T23:26:46Z</time>
      </trkpt>
      <trkpt lat="44.52826" lon="2.73637">
        <ele>332</ele>
        <time>2026-08-13T23:27:22Z</time>
      </trkpt>
      <trkpt lat="44.52833" lon="2.73589">
        <ele>332</ele>
        <time>2026-08-13T23:28:08Z</time>
      </trkpt>
      <trkpt lat="44.52828" lon="2.73579">
        <ele>333</ele>
        <time>2026-08-13T23:28:20Z</time>
      </trkpt>
      <trkpt lat="44.52834" lon="2.73552">
        <ele>333</ele>
        <time>2026-08-13T23:28:47Z</time>
      </trkpt>
      <trkpt lat="44.52765" lon="2.7343">
        <ele>340</ele>
        <time>2026-08-13T23:31:15Z</time>
      </trkpt>
      <trkpt lat="44.52738" lon="2.73287">
        <ele>342</ele>
        <time>2026-08-13T23:33:36Z</time>
      </trkpt>
      <trkpt lat="44.52724" lon="2.73235">
        <ele>342</ele>
        <time>2026-08-13T23:34:29Z</time>
      </trkpt>
      <trkpt lat="44.52687" lon="2.73157">
        <ele>343</ele>
        <time>2026-08-13T23:35:58Z</time>
      </trkpt>
      <trkpt lat="44.52624" lon="2.73058">
        <ele>346</ele>
        <time>2026-08-13T23:38:04Z</time>
      </trkpt>
      <trkpt lat="44.52614" lon="2.73033">
        <ele>347</ele>
        <time>2026-08-13T23:38:31Z</time>
      </trkpt>
      <trkpt lat="44.52605" lon="2.72918">
        <ele>341</ele>
        <time>2026-08-13T23:40:21Z</time>
      </trkpt>
      <trkpt lat="44.52592" lon="2.72851">
        <ele>339</ele>
        <time>2026-08-13T23:41:27Z</time>
      </trkpt>
      <trkpt lat="44.52583" lon="2.72822">
        <ele>337</ele>
        <time>2026-08-13T23:41:58Z</time>
      </trkpt>
      <trkpt lat="44.52598" lon="2.72801">
        <ele>341</ele>
        <time>2026-08-13T23:42:26Z</time>
      </trkpt>
      <trkpt lat="44.5258" lon="2.72775">
        <ele>339</ele>
        <time>2026-08-13T23:43:00Z</time>
      </trkpt>
      <trkpt lat="44.52563" lon="2.72757">
        <ele>340</ele>
        <time>2026-08-13T23:43:29Z</time>
      </trkpt>
      <trkpt lat="44.52562" lon="2.72746">
        <ele>340</ele>
        <time>2026-08-13T23:43:39Z</time>
      </trkpt>
      <trkpt lat="44.5255" lon="2.72728">
        <ele>341</ele>
        <time>2026-08-13T23:44:03Z</time>
      </trkpt>
      <trkpt lat="44.52544" lon="2.72715">
        <ele>342</ele>
        <time>2026-08-13T23:44:17Z</time>
      </trkpt>
      <trkpt lat="44.52543" lon="2.72707">
        <ele>342</ele>
        <time>2026-08-13T23:44:25Z</time>
      </trkpt>
      <trkpt lat="44.5255" lon="2.727">
        <ele>343</ele>
        <time>2026-08-13T23:44:37Z</time>
      </trkpt>
      <trkpt lat="44.52559" lon="2.72702">
        <ele>343</ele>
        <time>2026-08-13T23:44:49Z</time>
      </trkpt>
      <trkpt lat="44.52559" lon="2.72696">
        <ele>344</ele>
        <time>2026-08-13T23:44:55Z</time>
      </trkpt>
      <trkpt lat="44.52569" lon="2.7269">
        <ele>345</ele>
        <time>2026-08-13T23:45:09Z</time>
      </trkpt>
      <trkpt lat="44.5258" lon="2.72701">
        <ele>345</ele>
        <time>2026-08-13T23:45:27Z</time>
      </trkpt>
      <trkpt lat="44.5258" lon="2.72656">
        <ele>349</ele>
        <time>2026-08-13T23:46:10Z</time>
      </trkpt>
      <trkpt lat="44.52584" lon="2.72655">
        <ele>350</ele>
        <time>2026-08-13T23:46:15Z</time>
      </trkpt>
      <trkpt lat="44.52596" lon="2.72669">
        <ele>354</ele>
        <time>2026-08-13T23:46:36Z</time>
      </trkpt>
      <trkpt lat="44.52598" lon="2.72659">
        <ele>355</ele>
        <time>2026-08-13T23:46:46Z</time>
      </trkpt>
      <trkpt lat="44.52604" lon="2.72666">
        <ele>357</ele>
        <time>2026-08-13T23:46:56Z</time>
      </trkpt>
      <trkpt lat="44.52607" lon="2.72662">
        <ele>359</ele>
        <time>2026-08-13T23:47:02Z</time>
      </trkpt>
      <trkpt lat="44.52602" lon="2.72636">
        <ele>359</ele>
        <time>2026-08-13T23:47:28Z</time>
      </trkpt>
      <trkpt lat="44.52604" lon="2.72628">
        <ele>361</ele>
        <time>2026-08-13T23:47:36Z</time>
      </trkpt>
      <trkpt lat="44.52612" lon="2.72646">
        <ele>362</ele>
        <time>2026-08-13T23:47:56Z</time>
      </trkpt>
      <trkpt lat="44.52624" lon="2.72659">
        <ele>365</ele>
        <time>2026-08-13T23:48:16Z</time>
      </trkpt>
      <trkpt lat="44.52644" lon="2.72663">
        <ele>373</ele>
        <time>2026-08-13T23:48:43Z</time>
      </trkpt>
      <trkpt lat="44.52648" lon="2.72661">
        <ele>374</ele>
        <time>2026-08-13T23:48:49Z</time>
      </trkpt>
      <trkpt lat="44.52648" lon="2.72626">
        <ele>378</ele>
        <time>2026-08-13T23:49:22Z</time>
      </trkpt>
      <trkpt lat="44.52653" lon="2.72614">
        <ele>382</ele>
        <time>2026-08-13T23:49:35Z</time>
      </trkpt>
      <trkpt lat="44.52663" lon="2.72612">
        <ele>386</ele>
        <time>2026-08-13T23:49:49Z</time>
      </trkpt>
      <trkpt lat="44.52668" lon="2.72603">
        <ele>389</ele>
        <time>2026-08-13T23:50:00Z</time>
      </trkpt>
      <trkpt lat="44.52669" lon="2.72594">
        <ele>390</ele>
        <time>2026-08-13T23:50:08Z</time>
      </trkpt>
      <trkpt lat="44.52679" lon="2.72589">
        <ele>393</ele>
        <time>2026-08-13T23:50:22Z</time>
      </trkpt>
      <trkpt lat="44.52688" lon="2.72591">
        <ele>395</ele>
        <time>2026-08-13T23:50:35Z</time>
      </trkpt>
      <trkpt lat="44.52696" lon="2.72589">
        <ele>398</ele>
        <time>2026-08-13T23:50:45Z</time>
      </trkpt>
      <trkpt lat="44.52702" lon="2.72583">
        <ele>400</ele>
        <time>2026-08-13T23:50:55Z</time>
      </trkpt>
      <trkpt lat="44.52754" lon="2.72552">
        <ele>412</ele>
        <time>2026-08-13T23:52:11Z</time>
      </trkpt>
      <trkpt lat="44.5277" lon="2.72539">
        <ele>417</ele>
        <time>2026-08-13T23:52:35Z</time>
      </trkpt>
      <trkpt lat="44.52777" lon="2.72538">
        <ele>419</ele>
        <time>2026-08-13T23:52:45Z</time>
      </trkpt>
      <trkpt lat="44.52781" lon="2.72545">
        <ele>420</ele>
        <time>2026-08-13T23:52:53Z</time>
      </trkpt>
      <trkpt lat="44.52794" lon="2.72549">
        <ele>424</ele>
        <time>2026-08-13T23:53:11Z</time>
      </trkpt>
      <trkpt lat="44.528" lon="2.72545">
        <ele>426</ele>
        <time>2026-08-13T23:53:20Z</time>
      </trkpt>
      <trkpt lat="44.52805" lon="2.72532">
        <ele>427</ele>
        <time>2026-08-13T23:53:34Z</time>
      </trkpt>
      <trkpt lat="44.52815" lon="2.72532">
        <ele>430</ele>
        <time>2026-08-13T23:53:47Z</time>
      </trkpt>
      <trkpt lat="44.52824" lon="2.72547">
        <ele>433</ele>
        <time>2026-08-13T23:54:06Z</time>
      </trkpt>
      <trkpt lat="44.52827" lon="2.72542">
        <ele>434</ele>
        <time>2026-08-13T23:54:12Z</time>
      </trkpt>
      <trkpt lat="44.52839" lon="2.72558">
        <ele>436</ele>
        <time>2026-08-13T23:54:34Z</time>
      </trkpt>
      <trkpt lat="44.52846" lon="2.72555">
        <ele>437</ele>
        <time>2026-08-13T23:54:44Z</time>
      </trkpt>
      <trkpt lat="44.52879" lon="2.72506">
        <ele>450</ele>
        <time>2026-08-13T23:55:48Z</time>
      </trkpt>
      <trkpt lat="44.52898" lon="2.72469">
        <ele>459</ele>
        <time>2026-08-13T23:56:31Z</time>
      </trkpt>
      <trkpt lat="44.52929" lon="2.72392">
        <ele>474</ele>
        <time>2026-08-13T23:57:56Z</time>
      </trkpt>
      <trkpt lat="44.52934" lon="2.72371">
        <ele>475</ele>
        <time>2026-08-13T23:58:17Z</time>
      </trkpt>
      <trkpt lat="44.52936" lon="2.7234">
        <ele>476</ele>
        <time>2026-08-13T23:58:46Z</time>
      </trkpt>
      <trkpt lat="44.52951" lon="2.72259">
        <ele>480</ele>
        <time>2026-08-14T00:00:06Z</time>
      </trkpt>
      <trkpt lat="44.52951" lon="2.72245">
        <ele>480</ele>
        <time>2026-08-14T00:00:19Z</time>
      </trkpt>
      <trkpt lat="44.52949" lon="2.72225">
        <ele>481</ele>
        <time>2026-08-14T00:00:38Z</time>
      </trkpt>
      <trkpt lat="44.52944" lon="2.7221">
        <ele>481</ele>
        <time>2026-08-14T00:00:54Z</time>
      </trkpt>
      <trkpt lat="44.5291" lon="2.72141">
        <ele>485</ele>
        <time>2026-08-14T00:02:14Z</time>
      </trkpt>
      <trkpt lat="44.529" lon="2.72066">
        <ele>485</ele>
        <time>2026-08-14T00:03:27Z</time>
      </trkpt>
      <trkpt lat="44.5288" lon="2.72002">
        <ele>483</ele>
        <time>2026-08-14T00:04:33Z</time>
      </trkpt>
      <trkpt lat="44.52874" lon="2.71905">
        <ele>487</ele>
        <time>2026-08-14T00:06:06Z</time>
      </trkpt>
      <trkpt lat="44.52877" lon="2.71887">
        <ele>487</ele>
        <time>2026-08-14T00:06:23Z</time>
      </trkpt>
      <trkpt lat="44.52883" lon="2.71872">
        <ele>488</ele>
        <time>2026-08-14T00:06:40Z</time>
      </trkpt>
      <trkpt lat="44.52907" lon="2.71838">
        <ele>487</ele>
        <time>2026-08-14T00:07:25Z</time>
      </trkpt>
      <trkpt lat="44.52935" lon="2.7179">
        <ele>486</ele>
        <time>2026-08-14T00:08:24Z</time>
      </trkpt>
      <trkpt lat="44.5296" lon="2.7174">
        <ele>485</ele>
        <time>2026-08-14T00:09:22Z</time>
      </trkpt>
      <trkpt lat="44.52979" lon="2.71695">
        <ele>484</ele>
        <time>2026-08-14T00:10:12Z</time>
      </trkpt>
      <trkpt lat="44.52991" lon="2.71655">
        <ele>483</ele>
        <time>2026-08-14T00:10:53Z</time>
      </trkpt>
      <trkpt lat="44.52996" lon="2.71627">
        <ele>482</ele>
        <time>2026-08-14T00:11:21Z</time>
      </trkpt>
      <trkpt lat="44.53004" lon="2.71515">
        <ele>483</ele>
        <time>2026-08-14T00:13:08Z</time>
      </trkpt>
      <trkpt lat="44.53009" lon="2.71485">
        <ele>484</ele>
        <time>2026-08-14T00:13:37Z</time>
      </trkpt>
      <trkpt lat="44.53015" lon="2.7147">
        <ele>483</ele>
        <time>2026-08-14T00:13:53Z</time>
      </trkpt>
      <trkpt lat="44.53034" lon="2.71438">
        <ele>484</ele>
        <time>2026-08-14T00:14:33Z</time>
      </trkpt>
      <trkpt lat="44.53045" lon="2.71412">
        <ele>484</ele>
        <time>2026-08-14T00:15:02Z</time>
      </trkpt>
      <trkpt lat="44.53073" lon="2.71306">
        <ele>483</ele>
        <time>2026-08-14T00:16:49Z</time>
      </trkpt>
      <trkpt lat="44.53083" lon="2.71277">
        <ele>482</ele>
        <time>2026-08-14T00:17:20Z</time>
      </trkpt>
      <trkpt lat="44.53088" lon="2.71267">
        <ele>481</ele>
        <time>2026-08-14T00:17:32Z</time>
      </trkpt>
      <trkpt lat="44.53128" lon="2.7125">
        <ele>476</ele>
        <time>2026-08-14T00:18:27Z</time>
      </trkpt>
      <trkpt lat="44.53134" lon="2.71244">
        <ele>476</ele>
        <time>2026-08-14T00:18:37Z</time>
      </trkpt>
      <trkpt lat="44.5314" lon="2.71235">
        <ele>475</ele>
        <time>2026-08-14T00:18:49Z</time>
      </trkpt>
      <trkpt lat="44.53157" lon="2.7119">
        <ele>476</ele>
        <time>2026-08-14T00:19:37Z</time>
      </trkpt>
      <trkpt lat="44.53162" lon="2.71185">
        <ele>476</ele>
        <time>2026-08-14T00:19:46Z</time>
      </trkpt>
      <trkpt lat="44.53179" lon="2.7118">
        <ele>476</ele>
        <time>2026-08-14T00:20:09Z</time>
      </trkpt>
      <trkpt lat="44.53205" lon="2.7115">
        <ele>479</ele>
        <time>2026-08-14T00:20:54Z</time>
      </trkpt>
      <trkpt lat="44.5321" lon="2.71149">
        <ele>479</ele>
        <time>2026-08-14T00:21:00Z</time>
      </trkpt>
      <trkpt lat="44.53225" lon="2.71156">
        <ele>479</ele>
        <time>2026-08-14T00:21:22Z</time>
      </trkpt>
      <trkpt lat="44.53231" lon="2.71156">
        <ele>479</ele>
        <time>2026-08-14T00:21:30Z</time>
      </trkpt>
      <trkpt lat="44.53247" lon="2.71092">
        <ele>483</ele>
        <time>2026-08-14T00:22:34Z</time>
      </trkpt>
      <trkpt lat="44.53267" lon="2.71045">
        <ele>486</ele>
        <time>2026-08-14T00:23:26Z</time>
      </trkpt>
      <trkpt lat="44.53275" lon="2.71017">
        <ele>487</ele>
        <time>2026-08-14T00:23:55Z</time>
      </trkpt>
      <trkpt lat="44.5328" lon="2.70975">
        <ele>486</ele>
        <time>2026-08-14T00:24:35Z</time>
      </trkpt>
      <trkpt lat="44.53289" lon="2.70964">
        <ele>486</ele>
        <time>2026-08-14T00:24:51Z</time>
      </trkpt>
      <trkpt lat="44.53313" lon="2.7098">
        <ele>486</ele>
        <time>2026-08-14T00:25:27Z</time>
      </trkpt>
      <trkpt lat="44.53337" lon="2.71017">
        <ele>487</ele>
        <time>2026-08-14T00:26:14Z</time>
      </trkpt>
      <trkpt lat="44.53399" lon="2.71057">
        <ele>488</ele>
        <time>2026-08-14T00:27:45Z</time>
      </trkpt>
      <trkpt lat="44.53419" lon="2.71065">
        <ele>488</ele>
        <time>2026-08-14T00:28:13Z</time>
      </trkpt>
      <trkpt lat="44.53437" lon="2.7108">
        <ele>487</ele>
        <time>2026-08-14T00:28:41Z</time>
      </trkpt>
      <trkpt lat="44.53452" lon="2.71086">
        <ele>485</ele>
        <time>2026-08-14T00:29:02Z</time>
      </trkpt>
      <trkpt lat="44.53462" lon="2.71089">
        <ele>484</ele>
        <time>2026-08-14T00:29:16Z</time>
      </trkpt>
      <trkpt lat="44.53496" lon="2.71085">
        <ele>483</ele>
        <time>2026-08-14T00:30:01Z</time>
      </trkpt>
      <trkpt lat="44.53534" lon="2.71089">
        <ele>480</ele>
        <time>2026-08-14T00:30:52Z</time>
      </trkpt>
      <trkpt lat="44.5357" lon="2.71087">
        <ele>479</ele>
        <time>2026-08-14T00:31:40Z</time>
      </trkpt>
      <trkpt lat="44.53621" lon="2.71091">
        <ele>479</ele>
        <time>2026-08-14T00:32:48Z</time>
      </trkpt>
      <trkpt lat="44.53676" lon="2.71091">
        <ele>481</ele>
        <time>2026-08-14T00:34:02Z</time>
      </trkpt>
      <trkpt lat="44.53707" lon="2.71113">
        <ele>479</ele>
        <time>2026-08-14T00:34:48Z</time>
      </trkpt>
      <trkpt lat="44.53722" lon="2.7112">
        <ele>479</ele>
        <time>2026-08-14T00:35:09Z</time>
      </trkpt>
      <trkpt lat="44.53758" lon="2.71122">
        <ele>481</ele>
        <time>2026-08-14T00:35:57Z</time>
      </trkpt>
      <trkpt lat="44.53774" lon="2.71119">
        <ele>480</ele>
        <time>2026-08-14T00:36:19Z</time>
      </trkpt>
      <trkpt lat="44.53813" lon="2.71088">
        <ele>484</ele>
        <time>2026-08-14T00:37:18Z</time>
      </trkpt>
      <trkpt lat="44.53856" lon="2.71037">
        <ele>482</ele>
        <time>2026-08-14T00:38:34Z</time>
      </trkpt>
      <trkpt lat="44.53919" lon="2.70971">
        <ele>478</ele>
        <time>2026-08-14T00:40:19Z</time>
      </trkpt>
      <trkpt lat="44.53932" lon="2.7095">
        <ele>475</ele>
        <time>2026-08-14T00:40:45Z</time>
      </trkpt>
      <trkpt lat="44.53949" lon="2.70899">
        <ele>471</ele>
        <time>2026-08-14T00:41:39Z</time>
      </trkpt>
      <trkpt lat="44.53958" lon="2.70798">
        <ele>460</ele>
        <time>2026-08-14T00:43:15Z</time>
      </trkpt>
      <trkpt lat="44.53968" lon="2.70797">
        <ele>459</ele>
        <time>2026-08-14T00:43:29Z</time>
      </trkpt>
      <trkpt lat="44.53989" lon="2.70806">
        <ele>458</ele>
        <time>2026-08-14T00:43:58Z</time>
      </trkpt>
      <trkpt lat="44.54005" lon="2.70824">
        <ele>457</ele>
        <time>2026-08-14T00:44:25Z</time>
      </trkpt>
      <trkpt lat="44.54035" lon="2.70881">
        <ele>449</ele>
        <time>2026-08-14T00:45:33Z</time>
      </trkpt>
      <trkpt lat="44.54039" lon="2.70908">
        <ele>448</ele>
        <time>2026-08-14T00:45:59Z</time>
      </trkpt>
      <trkpt lat="44.54046" lon="2.70924">
        <ele>445</ele>
        <time>2026-08-14T00:46:17Z</time>
      </trkpt>
      <trkpt lat="44.54053" lon="2.70957">
        <ele>440</ele>
        <time>2026-08-14T00:46:50Z</time>
      </trkpt>
      <trkpt lat="44.54053" lon="2.70989">
        <ele>438</ele>
        <time>2026-08-14T00:47:20Z</time>
      </trkpt>
      <trkpt lat="44.54057" lon="2.70984">
        <ele>437</ele>
        <time>2026-08-14T00:47:27Z</time>
      </trkpt>
      <trkpt lat="44.5406" lon="2.70974">
        <ele>436</ele>
        <time>2026-08-14T00:47:38Z</time>
      </trkpt>
      <trkpt lat="44.54061" lon="2.70939">
        <ele>438</ele>
        <time>2026-08-14T00:48:11Z</time>
      </trkpt>
      <trkpt lat="44.54067" lon="2.70921">
        <ele>437</ele>
        <time>2026-08-14T00:48:30Z</time>
      </trkpt>
      <trkpt lat="44.54086" lon="2.70887">
        <ele>429</ele>
        <time>2026-08-14T00:49:11Z</time>
      </trkpt>
      <trkpt lat="44.54089" lon="2.70868">
        <ele>428</ele>
        <time>2026-08-14T00:49:29Z</time>
      </trkpt>
      <trkpt lat="44.54089" lon="2.70843">
        <ele>428</ele>
        <time>2026-08-14T00:49:53Z</time>
      </trkpt>
      <trkpt lat="44.54092" lon="2.70829">
        <ele>426</ele>
        <time>2026-08-14T00:50:07Z</time>
      </trkpt>
      <trkpt lat="44.54088" lon="2.70798">
        <ele>423</ele>
        <time>2026-08-14T00:50:37Z</time>
      </trkpt>
      <trkpt lat="44.54064" lon="2.70726">
        <ele>421</ele>
        <time>2026-08-14T00:51:53Z</time>
      </trkpt>
      <trkpt lat="44.54064" lon="2.70695">
        <ele>416</ele>
        <time>2026-08-14T00:52:22Z</time>
      </trkpt>
      <trkpt lat="44.54069" lon="2.70653">
        <ele>407</ele>
        <time>2026-08-14T00:53:03Z</time>
      </trkpt>
      <trkpt lat="44.54062" lon="2.70593">
        <ele>397</ele>
        <time>2026-08-14T00:54:00Z</time>
      </trkpt>
      <trkpt lat="44.54073" lon="2.7059">
        <ele>395</ele>
        <time>2026-08-14T00:54:15Z</time>
      </trkpt>
      <trkpt lat="44.54092" lon="2.70563">
        <ele>389</ele>
        <time>2026-08-14T00:54:51Z</time>
      </trkpt>
      <trkpt lat="44.54106" lon="2.7056">
        <ele>387</ele>
        <time>2026-08-14T00:55:10Z</time>
      </trkpt>
      <trkpt lat="44.54118" lon="2.70552">
        <ele>385</ele>
        <time>2026-08-14T00:55:28Z</time>
      </trkpt>
      <trkpt lat="44.54132" lon="2.70523">
        <ele>381</ele>
        <time>2026-08-14T00:56:01Z</time>
      </trkpt>
      <trkpt lat="44.54131" lon="2.70496">
        <ele>379</ele>
        <time>2026-08-14T00:56:27Z</time>
      </trkpt>
      <trkpt lat="44.5415" lon="2.70384">
        <ele>372</ele>
        <time>2026-08-14T00:58:17Z</time>
      </trkpt>
      <trkpt lat="44.54139" lon="2.70379">
        <ele>371</ele>
        <time>2026-08-14T00:58:32Z</time>
      </trkpt>
      <trkpt lat="44.54065" lon="2.7037">
        <ele>368</ele>
        <time>2026-08-14T01:00:11Z</time>
      </trkpt>
      <trkpt lat="44.54" lon="2.70365">
        <ele>367</ele>
        <time>2026-08-14T01:01:38Z</time>
      </trkpt>
      <trkpt lat="44.53985" lon="2.70359">
        <ele>366</ele>
        <time>2026-08-14T01:01:59Z</time>
      </trkpt>
      <trkpt lat="44.53969" lon="2.70348">
        <ele>365</ele>
        <time>2026-08-14T01:02:23Z</time>
      </trkpt>
      <trkpt lat="44.53957" lon="2.70333">
        <ele>363</ele>
        <time>2026-08-14T01:02:44Z</time>
      </trkpt>
      <trkpt lat="44.53943" lon="2.70308">
        <ele>362</ele>
        <time>2026-08-14T01:03:14Z</time>
      </trkpt>
      <trkpt lat="44.53941" lon="2.70297">
        <ele>361</ele>
        <time>2026-08-14T01:03:25Z</time>
      </trkpt>
      <trkpt lat="44.53946" lon="2.70251">
        <ele>359</ele>
        <time>2026-08-14T01:04:09Z</time>
      </trkpt>
      <trkpt lat="44.53944" lon="2.70235">
        <ele>359</ele>
        <time>2026-08-14T01:04:25Z</time>
      </trkpt>
      <trkpt lat="44.53939" lon="2.7022">
        <ele>359</ele>
        <time>2026-08-14T01:04:41Z</time>
      </trkpt>
      <trkpt lat="44.53925" lon="2.70195">
        <ele>360</ele>
        <time>2026-08-14T01:05:11Z</time>
      </trkpt>
      <trkpt lat="44.53911" lon="2.70177">
        <ele>361</ele>
        <time>2026-08-14T01:05:36Z</time>
      </trkpt>
      <trkpt lat="44.53873" lon="2.70132">
        <ele>363</ele>
        <time>2026-08-14T01:06:43Z</time>
      </trkpt>
      <trkpt lat="44.53859" lon="2.7012">
        <ele>364</ele>
        <time>2026-08-14T01:07:04Z</time>
      </trkpt>
      <trkpt lat="44.53822" lon="2.7006">
        <ele>363</ele>
        <time>2026-08-14T01:08:20Z</time>
      </trkpt>
      <trkpt lat="44.53944" lon="2.69735">
        <ele>355</ele>
        <time>2026-08-14T01:14:09Z</time>
      </trkpt>
      <trkpt lat="44.54031" lon="2.69519">
        <ele>351</ele>
        <time>2026-08-14T01:18:05Z</time>
      </trkpt>
      <trkpt lat="44.54035" lon="2.69501">
        <ele>351</ele>
        <time>2026-08-14T01:18:23Z</time>
      </trkpt>
      <trkpt lat="44.54073" lon="2.69169">
        <ele>347</ele>
        <time>2026-08-14T01:23:43Z</time>
      </trkpt>
      <trkpt lat="44.54028" lon="2.69118">
        <ele>344</ele>
        <time>2026-08-14T01:25:00Z</time>
      </trkpt>
      <trkpt lat="44.53992" lon="2.69086">
        <ele>344</ele>
        <time>2026-08-14T01:25:57Z</time>
      </trkpt>
      <trkpt lat="44.53783" lon="2.68964">
        <ele>347</ele>
        <time>2026-08-14T01:30:59Z</time>
      </trkpt>
      <trkpt lat="44.53747" lon="2.68937">
        <ele>348</ele>
        <time>2026-08-14T01:31:54Z</time>
      </trkpt>
      <trkpt lat="44.53767" lon="2.68923">
        <ele>347</ele>
        <time>2026-08-14T01:32:23Z</time>
      </trkpt>
      <trkpt lat="44.53845" lon="2.68788">
        <ele>345</ele>
        <time>2026-08-14T01:35:09Z</time>
      </trkpt>
      <trkpt lat="44.53871" lon="2.68754">
        <ele>345</ele>
        <time>2026-08-14T01:35:56Z</time>
      </trkpt>
      <trkpt lat="44.54021" lon="2.68642">
        <ele>343</ele>
        <time>2026-08-14T01:39:43Z</time>
      </trkpt>
      <trkpt lat="44.5403" lon="2.68631">
        <ele>343</ele>
        <time>2026-08-14T01:39:59Z</time>
      </trkpt>
      <trkpt lat="44.54077" lon="2.68558">
        <ele>342</ele>
        <time>2026-08-14T01:41:32Z</time>
      </trkpt>
      <trkpt lat="44.54085" lon="2.68548">
        <ele>342</ele>
        <time>2026-08-14T01:41:47Z</time>
      </trkpt>
      <trkpt lat="44.54096" lon="2.6854">
        <ele>342</ele>
        <time>2026-08-14T01:42:03Z</time>
      </trkpt>
      <trkpt lat="44.54095" lon="2.68536">
        <ele>342</ele>
        <time>2026-08-14T01:42:07Z</time>
      </trkpt>
      <trkpt lat="44.54115" lon="2.68489">
        <ele>341</ele>
        <time>2026-08-14T01:42:59Z</time>
      </trkpt>
      <trkpt lat="44.5414" lon="2.68458">
        <ele>339</ele>
        <time>2026-08-14T01:43:44Z</time>
      </trkpt>
      <trkpt lat="44.54206" lon="2.68389">
        <ele>335</ele>
        <time>2026-08-14T01:45:34Z</time>
      </trkpt>
      <trkpt lat="44.54224" lon="2.68367">
        <ele>335</ele>
        <time>2026-08-14T01:46:06Z</time>
      </trkpt>
      <trkpt lat="44.54237" lon="2.68345">
        <ele>334</ele>
        <time>2026-08-14T01:46:33Z</time>
      </trkpt>
      <trkpt lat="44.5425" lon="2.68308">
        <ele>334</ele>
        <time>2026-08-14T01:47:12Z</time>
      </trkpt>
      <trkpt lat="44.54254" lon="2.68305">
        <ele>334</ele>
        <time>2026-08-14T01:47:18Z</time>
      </trkpt>
      <trkpt lat="44.54263" lon="2.68304">
        <ele>333</ele>
        <time>2026-08-14T01:47:30Z</time>
      </trkpt>
      <trkpt lat="44.54301" lon="2.68313">
        <ele>333</ele>
        <time>2026-08-14T01:48:22Z</time>
      </trkpt>
      <trkpt lat="44.54311" lon="2.68318">
        <ele>333</ele>
        <time>2026-08-14T01:48:36Z</time>
      </trkpt>
      <trkpt lat="44.54314" lon="2.68301">
        <ele>332</ele>
        <time>2026-08-14T01:48:52Z</time>
      </trkpt>
      <trkpt lat="44.54323" lon="2.68274">
        <ele>332</ele>
        <time>2026-08-14T01:49:21Z</time>
      </trkpt>
      <trkpt lat="44.54325" lon="2.68257">
        <ele>332</ele>
        <time>2026-08-14T01:49:37Z</time>
      </trkpt>
      <trkpt lat="44.54319" lon="2.68203">
        <ele>328</ele>
        <time>2026-08-14T01:50:29Z</time>
      </trkpt>
      <trkpt lat="44.54327" lon="2.68155">
        <ele>325</ele>
        <time>2026-08-14T01:51:16Z</time>
      </trkpt>
      <trkpt lat="44.54313" lon="2.68132">
        <ele>326</ele>
        <time>2026-08-14T01:51:45Z</time>
      </trkpt>
      <trkpt lat="44.54292" lon="2.68115">
        <ele>326</ele>
        <time>2026-08-14T01:52:17Z</time>
      </trkpt>
      <trkpt lat="44.54276" lon="2.68085">
        <ele>326</ele>
        <time>2026-08-14T01:52:53Z</time>
      </trkpt>
      <trkpt lat="44.54272" lon="2.68071">
        <ele>328</ele>
        <time>2026-08-14T01:53:07Z</time>
      </trkpt>
      <trkpt lat="44.54275" lon="2.68049">
        <ele>331</ele>
        <time>2026-08-14T01:53:28Z</time>
      </trkpt>
      <trkpt lat="44.54325" lon="2.68053">
        <ele>333</ele>
        <time>2026-08-14T01:54:35Z</time>
      </trkpt>
      <trkpt lat="44.54349" lon="2.6807">
        <ele>333</ele>
        <time>2026-08-14T01:55:11Z</time>
      </trkpt>
      <trkpt lat="44.54384" lon="2.68127">
        <ele>330</ele>
        <time>2026-08-14T01:56:23Z</time>
      </trkpt>
      <trkpt lat="44.54411" lon="2.68159">
        <ele>327</ele>
        <time>2026-08-14T01:57:10Z</time>
      </trkpt>
      <trkpt lat="44.54419" lon="2.68177">
        <ele>325</ele>
        <time>2026-08-14T01:57:30Z</time>
      </trkpt>
      <trkpt lat="44.54434" lon="2.68174">
        <ele>327</ele>
        <time>2026-08-14T01:57:50Z</time>
      </trkpt>
      <trkpt lat="44.54481" lon="2.68173">
        <ele>331</ele>
        <time>2026-08-14T01:58:53Z</time>
      </trkpt>
      <trkpt lat="44.54528" lon="2.68159">
        <ele>340</ele>
        <time>2026-08-14T01:59:57Z</time>
      </trkpt>
      <trkpt lat="44.54599" lon="2.68173">
        <ele>346</ele>
        <time>2026-08-14T02:01:33Z</time>
      </trkpt>
      <trkpt lat="44.5461" lon="2.68177">
        <ele>348</ele>
        <time>2026-08-14T02:01:48Z</time>
      </trkpt>
      <trkpt lat="44.5462" lon="2.68185">
        <ele>348</ele>
        <time>2026-08-14T02:02:03Z</time>
      </trkpt>
      <trkpt lat="44.54632" lon="2.68205">
        <ele>346</ele>
        <time>2026-08-14T02:02:28Z</time>
      </trkpt>
      <trkpt lat="44.54651" lon="2.68267">
        <ele>336</ele>
        <time>2026-08-14T02:03:32Z</time>
      </trkpt>
      <trkpt lat="44.5466" lon="2.68289">
        <ele>334</ele>
        <time>2026-08-14T02:03:56Z</time>
      </trkpt>
      <trkpt lat="44.54668" lon="2.68304">
        <ele>334</ele>
        <time>2026-08-14T02:04:14Z</time>
      </trkpt>
      <trkpt lat="44.54696" lon="2.68342">
        <ele>343</ele>
        <time>2026-08-14T02:05:06Z</time>
      </trkpt>
      <trkpt lat="44.54706" lon="2.68362">
        <ele>346</ele>
        <time>2026-08-14T02:05:29Z</time>
      </trkpt>
      <trkpt lat="44.54712" lon="2.68382">
        <ele>347</ele>
        <time>2026-08-14T02:05:50Z</time>
      </trkpt>
      <trkpt lat="44.54722" lon="2.68436">
        <ele>346</ele>
        <time>2026-08-14T02:06:43Z</time>
      </trkpt>
      <trkpt lat="44.54728" lon="2.6844">
        <ele>348</ele>
        <time>2026-08-14T02:06:52Z</time>
      </trkpt>
      <trkpt lat="44.54746" lon="2.68475">
        <ele>349</ele>
        <time>2026-08-14T02:07:33Z</time>
      </trkpt>
      <trkpt lat="44.54748" lon="2.6849">
        <ele>347</ele>
        <time>2026-08-14T02:07:48Z</time>
      </trkpt>
      <trkpt lat="44.54754" lon="2.68508">
        <ele>346</ele>
        <time>2026-08-14T02:08:06Z</time>
      </trkpt>
      <trkpt lat="44.54816" lon="2.68616">
        <ele>352</ele>
        <time>2026-08-14T02:10:18Z</time>
      </trkpt>
      <trkpt lat="44.54828" lon="2.68628">
        <ele>353</ele>
        <time>2026-08-14T02:10:38Z</time>
      </trkpt>
      <trkpt lat="44.54847" lon="2.68636">
        <ele>352</ele>
        <time>2026-08-14T02:11:05Z</time>
      </trkpt>
      <trkpt lat="44.54858" lon="2.68636">
        <ele>351</ele>
        <time>2026-08-14T02:11:19Z</time>
      </trkpt>
      <trkpt lat="44.54874" lon="2.68629">
        <ele>351</ele>
        <time>2026-08-14T02:11:42Z</time>
      </trkpt>
      <trkpt lat="44.54885" lon="2.68609">
        <ele>353</ele>
        <time>2026-08-14T02:12:06Z</time>
      </trkpt>
      <trkpt lat="44.54887" lon="2.68587">
        <ele>356</ele>
        <time>2026-08-14T02:12:27Z</time>
      </trkpt>
      <trkpt lat="44.54889" lon="2.68358">
        <ele>353</ele>
        <time>2026-08-14T02:16:04Z</time>
      </trkpt>
      <trkpt lat="44.54874" lon="2.68273">
        <ele>352</ele>
        <time>2026-08-14T02:17:28Z</time>
      </trkpt>
      <trkpt lat="44.54856" lon="2.68203">
        <ele>354</ele>
        <time>2026-08-14T02:18:39Z</time>
      </trkpt>
      <trkpt lat="44.5484" lon="2.68092">
        <ele>349</ele>
        <time>2026-08-14T02:20:26Z</time>
      </trkpt>
      <trkpt lat="44.54841" lon="2.68066">
        <ele>349</ele>
        <time>2026-08-14T02:20:51Z</time>
      </trkpt>
      <trkpt lat="44.54874" lon="2.67952">
        <ele>346</ele>
        <time>2026-08-14T02:22:48Z</time>
      </trkpt>
      <trkpt lat="44.549" lon="2.67892">
        <ele>341</ele>
        <time>2026-08-14T02:23:55Z</time>
      </trkpt>
      <trkpt lat="44.54916" lon="2.67867">
        <ele>338</ele>
        <time>2026-08-14T02:24:27Z</time>
      </trkpt>
      <trkpt lat="44.54936" lon="2.67844">
        <ele>339</ele>
        <time>2026-08-14T02:25:01Z</time>
      </trkpt>
      <trkpt lat="44.55001" lon="2.67784">
        <ele>333</ele>
        <time>2026-08-14T02:26:45Z</time>
      </trkpt>
      <trkpt lat="44.55017" lon="2.67766">
        <ele>335</ele>
        <time>2026-08-14T02:27:12Z</time>
      </trkpt>
      <trkpt lat="44.55071" lon="2.67685">
        <ele>335</ele>
        <time>2026-08-14T02:28:58Z</time>
      </trkpt>
      <trkpt lat="44.55087" lon="2.67644">
        <ele>336</ele>
        <time>2026-08-14T02:29:42Z</time>
      </trkpt>
      <trkpt lat="44.55103" lon="2.67579">
        <ele>340</ele>
        <time>2026-08-14T02:30:48Z</time>
      </trkpt>
      <trkpt lat="44.55126" lon="2.67524">
        <ele>344</ele>
        <time>2026-08-14T02:31:48Z</time>
      </trkpt>
      <trkpt lat="44.55164" lon="2.67473">
        <ele>340</ele>
        <time>2026-08-14T02:32:59Z</time>
      </trkpt>
      <trkpt lat="44.55199" lon="2.67436">
        <ele>338</ele>
        <time>2026-08-14T02:33:57Z</time>
      </trkpt>
      <trkpt lat="44.55232" lon="2.67382">
        <ele>329</ele>
        <time>2026-08-14T02:35:05Z</time>
      </trkpt>
      <trkpt lat="44.5524" lon="2.67356">
        <ele>326</ele>
        <time>2026-08-14T02:35:32Z</time>
      </trkpt>
      <trkpt lat="44.55245" lon="2.67309">
        <ele>322</ele>
        <time>2026-08-14T02:36:17Z</time>
      </trkpt>
      <trkpt lat="44.55243" lon="2.67221">
        <ele>317</ele>
        <time>2026-08-14T02:37:41Z</time>
      </trkpt>
      <trkpt lat="44.55245" lon="2.67211">
        <ele>316</ele>
        <time>2026-08-14T02:37:50Z</time>
      </trkpt>
      <trkpt lat="44.55251" lon="2.67206">
        <ele>315</ele>
        <time>2026-08-14T02:38:00Z</time>
      </trkpt>
      <trkpt lat="44.55303" lon="2.67193">
        <ele>316</ele>
        <time>2026-08-14T02:39:10Z</time>
      </trkpt>
      <trkpt lat="44.55333" lon="2.67186">
        <ele>317</ele>
        <time>2026-08-14T02:39:51Z</time>
      </trkpt>
      <trkpt lat="44.55348" lon="2.67186">
        <ele>318</ele>
        <time>2026-08-14T02:40:11Z</time>
      </trkpt>
      <trkpt lat="44.55346" lon="2.67219">
        <ele>318</ele>
        <time>2026-08-14T02:40:42Z</time>
      </trkpt>
      <trkpt lat="44.55327" lon="2.67382">
        <ele>320</ele>
        <time>2026-08-14T02:43:19Z</time>
      </trkpt>
      <trkpt lat="44.55322" lon="2.67402">
        <ele>321</ele>
        <time>2026-08-14T02:43:40Z</time>
      </trkpt>
    </trkseg>
  </trk>
</gpx>